createdAt,value
2022-11-30T00:02:25.728Z,10.00
2022-11-30T00:04:53.107Z,10.02
2022-11-30T00:07:20.235Z,10.04
2022-11-30T00:09:47.517Z,10.05
2022-11-30T00:12:14.666Z,10.07
2022-11-30T00:14:41.526Z,10.10
2022-11-30T00:17:08.728Z,10.11
2022-11-30T00:19:35.688Z,10.11
2022-11-30T00:22:02.725Z,10.12
2022-11-30T00:24:29.687Z,10.11
2022-11-30T00:26:56.940Z,10.13
2022-11-30T00:29:23.989Z,10.14
2022-11-30T00:31:51.509Z,10.15
2022-11-30T00:34:18.351Z,10.15
2022-11-30T00:36:45.449Z,10.14
2022-11-30T00:39:12.994Z,10.16
2022-11-30T00:41:46.260Z,10.14
2022-11-30T00:44:13.356Z,10.16
2022-11-30T00:46:40.261Z,10.18
2022-11-30T00:49:10.196Z,10.19
2022-11-30T00:52:24.246Z,10.19
2022-11-30T00:54:53.458Z,10.17
2022-11-30T00:57:20.488Z,10.19
2022-11-30T00:59:51.035Z,10.19
2022-11-30T01:02:20.076Z,10.18
2022-11-30T01:04:49.939Z,10.15
2022-11-30T01:07:23.761Z,10.14
2022-11-30T01:09:50.843Z,10.15
2022-11-30T01:12:20.587Z,10.17
2022-11-30T01:14:47.961Z,10.16
2022-11-30T01:17:15.278Z,10.17
2022-11-30T01:19:42.268Z,10.13
2022-11-30T01:22:13.631Z,10.10
2022-11-30T01:24:45.236Z,10.10
2022-11-30T01:27:12.817Z,10.10
2022-11-30T01:29:39.907Z,10.09
2022-11-30T01:32:07.649Z,10.08
2022-11-30T01:34:37.147Z,10.06
2022-11-30T01:37:07.378Z,10.10
2022-11-30T01:39:38.088Z,10.09
2022-11-30T01:42:05.467Z,10.10
2022-11-30T01:44:32.681Z,10.09
2022-11-30T01:47:06.949Z,10.07
2022-11-30T01:50:24.649Z,10.07
2022-11-30T01:52:54.277Z,10.11
2022-11-30T01:55:28.893Z,10.14
2022-11-30T01:57:59.395Z,10.13
2022-11-30T02:00:26.511Z,10.13
2022-11-30T02:06:18.325Z,10.09
2022-11-30T02:08:45.349Z,10.07
2022-11-30T02:11:15.248Z,10.07
2022-11-30T02:13:48.555Z,10.04
2022-11-30T02:16:25.438Z,10.05
2022-11-30T02:18:58.521Z,10.03
2022-11-30T02:21:30.726Z,10.04
2022-11-30T02:24:08.001Z,10.04
2022-11-30T02:26:51.677Z,10.01
2022-11-30T02:29:32.185Z,9.96
2022-11-30T02:32:09.379Z,9.97
2022-11-30T02:34:41.638Z,9.97
2022-11-30T02:37:13.517Z,9.93
2022-11-30T02:39:49.728Z,9.95
2022-11-30T02:42:22.330Z,9.95
2022-11-30T02:44:50.737Z,9.94
2022-11-30T02:47:31.260Z,9.95
2022-11-30T02:50:02.517Z,9.94
2022-11-30T02:52:32.157Z,9.92
2022-11-30T02:55:00.357Z,9.94
2022-11-30T02:57:27.546Z,9.97
2022-11-30T02:59:54.911Z,10.00
2022-11-30T03:02:23.207Z,9.99
2022-11-30T03:04:51.756Z,9.99
2022-11-30T03:07:19.000Z,9.99
2022-11-30T03:09:46.128Z,9.99
2022-11-30T03:12:14.145Z,10.03
2022-11-30T03:17:26.421Z,10.03
2022-11-30T03:19:53.956Z,10.05
2022-11-30T03:22:20.870Z,10.05
2022-11-30T03:24:48.254Z,10.08
2022-11-30T03:27:15.456Z,10.08
2022-11-30T03:29:42.546Z,10.09
2022-11-30T03:32:22.061Z,10.11
2022-11-30T03:34:50.842Z,10.12
2022-11-30T03:40:37.523Z,10.10
2022-11-30T03:43:04.596Z,10.08
2022-11-30T03:45:31.881Z,10.09
2022-11-30T03:48:07.053Z,10.13
2022-11-30T03:50:34.652Z,10.18
2022-11-30T03:53:01.831Z,10.19
2022-11-30T03:55:28.982Z,10.20
2022-11-30T03:57:56.828Z,10.21
2022-11-30T04:00:24.206Z,10.21
2022-11-30T04:02:54.467Z,10.21
2022-11-30T04:05:22.887Z,10.19
2022-11-30T04:07:50.189Z,10.20
2022-11-30T04:10:21.066Z,10.22
2022-11-30T04:12:47.916Z,10.23
2022-11-30T04:15:14.960Z,10.22
2022-11-30T04:18:26.641Z,10.18
2022-11-30T04:20:58.586Z,10.21
2022-11-30T04:23:26.826Z,10.21
2022-11-30T04:25:54.110Z,10.21
2022-11-30T04:28:21.776Z,10.21
2022-11-30T04:30:48.949Z,10.21
2022-11-30T04:33:16.719Z,10.22
2022-11-30T04:35:46.132Z,10.21
2022-11-30T04:38:16.520Z,10.21
2022-11-30T04:40:44.577Z,10.23
2022-11-30T04:43:12.644Z,10.22
2022-11-30T04:45:46.237Z,10.21
2022-11-30T04:48:13.410Z,10.21
2022-11-30T04:50:43.266Z,10.22
2022-11-30T04:53:10.767Z,10.22
2022-11-30T04:55:38.411Z,10.24
2022-11-30T04:58:06.212Z,10.26
2022-11-30T05:00:35.506Z,10.27
2022-11-30T05:03:02.482Z,10.25
2022-11-30T05:05:29.361Z,10.27
2022-11-30T05:08:00.807Z,10.28
2022-11-30T05:10:32.320Z,10.29
2022-11-30T05:13:00.635Z,10.30
2022-11-30T05:15:27.763Z,10.29
2022-11-30T05:17:58.720Z,10.28
2022-11-30T05:20:25.846Z,10.29
2022-11-30T05:22:54.410Z,10.31
2022-11-30T05:25:21.491Z,10.31
2022-11-30T05:27:52.540Z,10.31
2022-11-30T05:30:19.655Z,10.29
2022-11-30T05:32:47.064Z,10.27
2022-11-30T05:35:14.084Z,10.27
2022-11-30T05:37:42.340Z,10.27
2022-11-30T05:40:09.796Z,10.27
2022-11-30T05:42:36.740Z,10.27
2022-11-30T05:45:04.023Z,10.28
2022-11-30T05:50:52.756Z,10.26
2022-11-30T05:53:19.916Z,10.25
2022-11-30T05:55:47.027Z,10.21
2022-11-30T05:58:15.947Z,10.20
2022-11-30T06:00:43.080Z,10.19
2022-11-30T06:03:10.352Z,10.22
2022-11-30T06:05:38.740Z,10.23
2022-11-30T06:08:08.896Z,10.24
2022-11-30T06:10:37.401Z,10.24
2022-11-30T06:13:07.338Z,10.24
2022-11-30T06:15:39.735Z,10.23
2022-11-30T06:18:07.441Z,10.26
2022-11-30T06:20:34.781Z,10.27
2022-11-30T06:23:02.001Z,10.25
2022-11-30T06:25:29.813Z,10.24
2022-11-30T06:27:57.090Z,10.25
2022-11-30T06:30:25.505Z,10.28
2022-11-30T06:32:52.857Z,10.30
2022-11-30T06:35:22.797Z,10.32
2022-11-30T06:38:30.215Z,10.32
2022-11-30T06:41:09.769Z,10.33
2022-11-30T06:43:37.758Z,10.31
2022-11-30T06:46:05.540Z,10.33
2022-11-30T06:48:32.884Z,10.33
2022-11-30T06:51:00.918Z,10.34
2022-11-30T06:53:28.322Z,10.32
2022-11-30T06:56:05.195Z,10.31
2022-11-30T06:58:37.256Z,10.35
2022-11-30T07:01:08.611Z,10.35
2022-11-30T07:03:36.424Z,10.35
2022-11-30T07:06:12.176Z,10.36
2022-11-30T07:08:46.302Z,10.37
2022-11-30T07:11:14.796Z,10.37
2022-11-30T07:14:01.121Z,10.33
2022-11-30T07:16:28.438Z,10.37
2022-11-30T07:18:57.285Z,10.36
2022-11-30T07:21:38.585Z,10.37
2022-11-30T07:24:26.473Z,10.37
2022-11-30T07:27:10.183Z,10.38
2022-11-30T07:29:53.805Z,10.35
2022-11-30T07:32:28.785Z,10.34
2022-11-30T07:35:01.901Z,10.32
2022-11-30T07:37:43.416Z,10.33
2022-11-30T07:40:22.556Z,10.29
2022-11-30T07:43:09.587Z,10.28
2022-11-30T07:45:48.538Z,10.28
2022-11-30T07:48:25.558Z,10.29
2022-11-30T07:51:28.361Z,10.31
2022-11-30T07:54:16.946Z,10.33
2022-11-30T07:57:06.582Z,10.32
2022-11-30T07:59:35.117Z,10.33
2022-11-30T08:02:02.289Z,10.32
2022-11-30T08:04:29.548Z,10.32
2022-11-30T08:06:56.579Z,10.33
2022-11-30T08:09:23.431Z,10.35
2022-11-30T08:11:50.538Z,10.36
2022-11-30T08:14:19.081Z,10.35
2022-11-30T08:16:46.140Z,10.36
2022-11-30T08:19:13.275Z,10.38
2022-11-30T08:21:40.456Z,10.37
2022-11-30T08:24:12.980Z,10.40
2022-11-30T08:26:43.165Z,10.42
2022-11-30T08:29:11.307Z,10.41
2022-11-30T08:31:38.664Z,10.43
2022-11-30T08:34:07.311Z,10.42
2022-11-30T08:36:35.160Z,10.44
2022-11-30T08:42:20.336Z,10.46
2022-11-30T08:44:48.662Z,10.45
2022-11-30T08:47:16.723Z,10.45
2022-11-30T08:49:49.916Z,10.48
2022-11-30T08:52:19.214Z,10.49
2022-11-30T08:55:23.561Z,10.50
2022-11-30T08:57:50.788Z,10.51
2022-11-30T09:00:20.691Z,10.51
2022-11-30T09:02:47.766Z,10.50
2022-11-30T09:05:15.075Z,10.48
2022-11-30T09:08:24.648Z,10.46
2022-11-30T09:10:54.599Z,10.46
2022-11-30T09:13:23.566Z,10.45
2022-11-30T09:15:55.241Z,10.39
2022-11-30T09:21:04.336Z,10.38
2022-11-30T09:23:31.452Z,10.38
2022-11-30T09:25:59.718Z,10.36
2022-11-30T09:28:28.032Z,10.37
2022-11-30T09:30:55.401Z,10.39
2022-11-30T09:36:44.103Z,10.44
2022-11-30T09:39:24.691Z,10.48
2022-11-30T09:42:04.957Z,10.52
2022-11-30T09:44:32.082Z,10.53
2022-11-30T09:47:00.259Z,10.56
2022-11-30T09:52:49.582Z,10.59
2022-11-30T09:55:23.213Z,10.59
2022-11-30T09:57:52.979Z,10.58
2022-11-30T10:00:22.397Z,10.59
2022-11-30T10:02:51.013Z,10.58
2022-11-30T10:05:28.373Z,10.57
2022-11-30T10:08:18.222Z,10.57
2022-11-30T10:10:45.658Z,10.57
2022-11-30T10:13:23.975Z,10.57
2022-11-30T10:16:00.948Z,10.57
2022-11-30T10:18:37.656Z,10.58
2022-11-30T10:21:13.837Z,10.58
2022-11-30T10:23:52.997Z,10.59
2022-11-30T10:26:38.709Z,10.59
2022-11-30T10:29:14.463Z,10.60
2022-11-30T10:31:43.336Z,10.57
2022-11-30T10:34:19.742Z,10.58
2022-11-30T10:36:49.236Z,10.55
2022-11-30T10:39:23.858Z,10.56
2022-11-30T10:42:00.437Z,10.58
2022-11-30T10:44:31.326Z,10.59
2022-11-30T10:47:07.742Z,10.60
2022-11-30T10:49:42.912Z,10.61
2022-11-30T10:52:13.263Z,10.61
2022-11-30T10:54:40.447Z,10.61
2022-11-30T10:57:07.726Z,10.64
2022-11-30T10:59:42.567Z,10.65
2022-11-30T11:05:31.671Z,10.66
2022-11-30T11:08:05.913Z,10.68
2022-11-30T11:10:45.652Z,10.72
2022-11-30T11:13:17.925Z,10.76
2022-11-30T11:15:59.186Z,10.77
2022-11-30T11:18:27.476Z,10.82
2022-11-30T11:21:04.403Z,10.88
2022-11-30T11:23:35.722Z,10.92
2022-11-30T11:26:13.222Z,10.94
2022-11-30T11:28:46.934Z,10.99
2022-11-30T11:31:24.451Z,11.05
2022-11-30T11:33:57.701Z,11.11
2022-11-30T11:36:29.646Z,11.12
2022-11-30T11:38:58.877Z,11.13
2022-11-30T11:44:44.010Z,11.19
2022-11-30T11:47:23.379Z,11.21
2022-11-30T11:49:51.312Z,11.27
2022-11-30T11:52:18.488Z,11.22
2022-11-30T11:54:49.220Z,11.13
2022-11-30T11:57:17.807Z,11.11
2022-11-30T11:59:55.207Z,11.10
2022-11-30T12:02:25.711Z,11.07
2022-11-30T12:04:56.924Z,11.05
2022-11-30T12:07:27.741Z,11.06
2022-11-30T12:09:57.680Z,11.10
2022-11-30T12:12:25.045Z,11.12
2022-11-30T12:14:52.201Z,11.15
2022-11-30T12:17:19.688Z,11.17
2022-11-30T12:19:59.337Z,11.23
2022-11-30T12:22:32.438Z,11.21
2022-11-30T12:25:12.155Z,11.19
2022-11-30T12:27:54.070Z,11.14
2022-11-30T12:30:24.948Z,11.11
2022-11-30T12:32:55.453Z,11.12
2022-11-30T12:35:27.556Z,11.12
2022-11-30T12:38:01.701Z,11.15
2022-11-30T12:40:31.653Z,11.19
2022-11-30T12:43:01.941Z,11.27
2022-11-30T12:45:32.219Z,11.28
2022-11-30T12:48:02.439Z,11.23
2022-11-30T12:50:32.794Z,11.19
2022-11-30T12:56:26.453Z,11.19
2022-11-30T12:58:55.301Z,11.22
2022-11-30T13:01:25.438Z,11.19
2022-11-30T13:03:55.711Z,11.14
2022-11-30T13:06:25.471Z,11.09
2022-11-30T13:08:55.998Z,11.07
2022-11-30T13:11:26.317Z,11.06
2022-11-30T13:13:56.352Z,11.08
2022-11-30T13:16:26.075Z,11.13
2022-11-30T13:19:01.080Z,11.14
2022-11-30T13:21:35.270Z,11.14
2022-11-30T13:24:05.507Z,11.15
2022-11-30T13:26:33.070Z,11.16
2022-11-30T13:29:02.068Z,11.18
2022-11-30T13:31:34.627Z,11.19
2022-11-30T13:34:03.574Z,11.20
2022-11-30T13:36:33.101Z,11.22
2022-11-30T13:39:08.792Z,11.23
2022-11-30T13:41:36.553Z,11.24
2022-11-30T13:44:04.283Z,11.26
2022-11-30T13:46:31.855Z,11.28
2022-11-30T13:49:02.856Z,11.31
2022-11-30T13:51:33.088Z,11.31
2022-11-30T13:54:26.463Z,11.32
2022-11-30T13:56:50.824Z,11.34
2022-11-30T13:59:21.136Z,11.36
2022-11-30T14:01:48.938Z,11.37
2022-11-30T14:04:19.165Z,11.43
2022-11-30T14:06:50.213Z,11.45
2022-11-30T14:09:41.574Z,11.47
2022-11-30T14:12:12.690Z,11.47
2022-11-30T14:14:49.668Z,11.49
2022-11-30T14:17:18.707Z,11.52
2022-11-30T14:19:49.317Z,11.50
2022-11-30T14:22:28.613Z,11.50
2022-11-30T14:24:56.864Z,11.51
2022-11-30T14:30:43.450Z,11.50
2022-11-30T14:33:19.325Z,11.54
2022-11-30T14:35:50.237Z,11.56
2022-11-30T14:38:24.824Z,11.59
2022-11-30T14:51:24.257Z,11.62
2022-11-30T14:53:57.208Z,11.63
2022-11-30T14:56:32.636Z,11.66
2022-11-30T14:59:01.191Z,11.64
2022-11-30T15:01:31.035Z,11.64
2022-11-30T15:04:02.825Z,11.64
2022-11-30T15:06:32.678Z,11.63
2022-11-30T15:09:00.840Z,11.62
2022-11-30T15:11:28.803Z,11.61
2022-11-30T15:14:07.931Z,11.58
2022-11-30T15:16:35.369Z,11.59
2022-11-30T15:19:18.462Z,11.58
2022-11-30T15:21:49.264Z,11.58
2022-11-30T15:24:19.731Z,11.59
2022-11-30T15:26:47.802Z,11.60
2022-11-30T15:32:35.721Z,11.54
2022-11-30T15:35:09.413Z,11.54
2022-11-30T15:37:42.413Z,11.53
2022-11-30T15:40:16.111Z,11.52
2022-11-30T15:42:45.308Z,11.49
2022-11-30T15:45:16.602Z,11.47
2022-11-30T15:47:48.272Z,11.45
2022-11-30T15:50:23.136Z,11.44
2022-11-30T15:52:54.989Z,11.42
2022-11-30T15:58:48.149Z,11.38
2022-11-30T16:01:27.248Z,11.35
2022-11-30T16:03:55.842Z,11.35
2022-11-30T16:06:29.142Z,11.35
2022-11-30T16:08:56.758Z,11.32
2022-11-30T16:18:16.340Z,11.28
2022-11-30T16:20:49.012Z,11.28
2022-11-30T16:23:18.352Z,11.31
2022-11-30T16:25:46.882Z,11.33
2022-11-30T16:28:15.523Z,11.34
2022-11-30T16:30:44.023Z,11.35
2022-11-30T16:33:15.576Z,11.35
2022-11-30T16:35:46.153Z,11.35
2022-11-30T16:38:13.618Z,11.36
2022-11-30T16:40:44.062Z,11.36
2022-11-30T16:46:36.157Z,11.32
2022-11-30T16:49:03.620Z,11.31
2022-11-30T16:51:39.401Z,11.27
2022-11-30T16:54:10.446Z,11.23
2022-11-30T16:56:40.862Z,11.18
2022-11-30T17:05:44.999Z,11.13
2022-11-30T17:08:26.167Z,11.15
2022-11-30T17:10:54.676Z,11.17
2022-11-30T17:13:25.980Z,11.17
2022-11-30T17:15:55.838Z,11.15
2022-11-30T17:18:53.071Z,11.13
2022-11-30T17:21:22.599Z,11.13
2022-11-30T17:23:50.028Z,11.15
2022-11-30T17:26:27.798Z,11.17
2022-11-30T17:28:57.855Z,11.19
2022-11-30T17:31:25.079Z,11.23
2022-11-30T17:33:53.922Z,11.23
2022-11-30T17:36:20.795Z,11.26
2022-11-30T17:38:47.689Z,11.26
2022-11-30T17:41:19.144Z,11.27
2022-11-30T17:43:49.628Z,11.23
2022-11-30T17:46:20.722Z,11.20
2022-11-30T17:52:05.946Z,11.12
2022-11-30T17:54:33.163Z,11.09
2022-11-30T17:57:00.647Z,11.06
2022-11-30T17:59:27.785Z,11.03
2022-11-30T18:01:55.137Z,11.04
2022-11-30T18:07:40.378Z,11.09
2022-11-30T18:10:09.792Z,11.06
2022-11-30T18:12:37.170Z,11.02
2022-11-30T18:15:04.809Z,10.99
2022-11-30T18:17:34.081Z,10.96
2022-11-30T18:20:04.039Z,10.99
2022-11-30T18:22:31.191Z,10.98
2022-11-30T18:24:58.202Z,11.00
2022-11-30T18:27:26.809Z,10.95
2022-11-30T18:29:53.853Z,10.93
2022-11-30T18:32:20.957Z,10.93
2022-11-30T18:34:50.300Z,10.91
2022-11-30T18:37:19.906Z,10.94
2022-11-30T18:39:46.969Z,10.93
2022-11-30T18:42:13.773Z,10.93
2022-11-30T18:44:40.544Z,10.95
2022-11-30T18:47:07.366Z,10.94
2022-11-30T18:49:34.404Z,10.95
2022-11-30T18:52:03.331Z,10.95
2022-11-30T18:54:31.896Z,10.94
2022-11-30T18:56:58.668Z,10.94
2022-11-30T19:02:44.060Z,10.92
2022-11-30T19:05:13.546Z,10.93
2022-11-30T19:07:43.941Z,10.94
2022-11-30T19:10:10.875Z,10.94
2022-11-30T19:12:37.790Z,10.94
2022-11-30T19:15:13.946Z,10.96
2022-11-30T19:17:43.221Z,10.97
2022-11-30T19:20:19.215Z,10.94
2022-11-30T19:22:48.954Z,10.94
2022-11-30T19:25:19.264Z,10.95
2022-11-30T19:27:46.775Z,10.95
2022-11-30T19:30:14.612Z,10.95
2022-11-30T19:32:44.665Z,10.96
2022-11-30T19:35:11.494Z,10.95
2022-11-30T19:37:38.711Z,10.97
2022-11-30T19:40:06.287Z,10.96
2022-11-30T19:42:36.259Z,11.00
2022-11-30T19:45:03.653Z,11.04
2022-11-30T19:47:32.229Z,11.01
2022-11-30T19:50:00.290Z,11.01
2022-11-30T19:52:27.279Z,11.01
2022-11-30T19:54:54.133Z,11.04
2022-11-30T20:00:39.645Z,11.02
2022-11-30T20:03:10.122Z,11.05
2022-11-30T20:08:21.387Z,11.05
2022-11-30T20:10:48.765Z,11.05
2022-11-30T20:13:15.709Z,11.10
2022-11-30T20:15:42.812Z,11.08
2022-11-30T20:18:09.973Z,11.08
2022-11-30T20:21:24.002Z,11.10
2022-11-30T20:23:51.423Z,11.06
2022-11-30T20:26:23.175Z,11.05
2022-11-30T20:28:50.807Z,11.02
2022-11-30T20:31:19.524Z,11.01
2022-11-30T20:40:22.576Z,10.95
2022-11-30T20:42:51.233Z,10.94
2022-11-30T20:45:18.229Z,10.90
2022-11-30T20:47:45.088Z,10.85
2022-11-30T20:50:12.320Z,10.84
2022-11-30T20:52:39.176Z,10.83
2022-11-30T20:55:06.228Z,10.82
2022-11-30T20:57:33.387Z,10.84
2022-11-30T21:00:00.264Z,10.87
2022-11-30T21:02:27.363Z,10.87
2022-11-30T21:14:49.743Z,10.89
2022-11-30T21:17:16.787Z,10.94
2022-11-30T21:19:48.639Z,10.91
2022-11-30T21:22:15.722Z,10.88
2022-11-30T21:25:23.611Z,10.89
2022-11-30T21:27:58.293Z,10.84
2022-11-30T21:30:28.578Z,10.84
2022-11-30T21:32:55.475Z,10.82
2022-11-30T21:35:25.336Z,10.82
2022-11-30T21:37:52.270Z,10.84
2022-11-30T21:40:21.485Z,10.78
2022-11-30T21:42:50.850Z,10.75
2022-11-30T21:45:17.676Z,10.75
2022-11-30T21:47:47.141Z,10.72
2022-11-30T21:50:15.499Z,10.69
2022-11-30T21:52:42.560Z,10.69
2022-11-30T21:55:09.748Z,10.68
2022-11-30T21:57:38.074Z,10.66
2022-11-30T22:00:05.435Z,10.64
2022-11-30T22:02:32.837Z,10.64
2022-11-30T22:04:59.745Z,10.65
2022-11-30T22:07:34.752Z,10.67
2022-11-30T22:10:01.660Z,10.66
2022-11-30T22:15:47.202Z,10.70
2022-11-30T22:18:14.403Z,10.70
2022-11-30T22:20:42.137Z,10.75
2022-11-30T22:23:11.656Z,10.75
2022-11-30T22:25:43.990Z,10.75
2022-11-30T22:28:14.025Z,10.77
2022-11-30T22:30:41.128Z,10.80
2022-11-30T22:33:10.609Z,10.83
2022-11-30T22:35:37.449Z,10.82
2022-11-30T22:38:04.379Z,10.84
2022-11-30T22:40:31.398Z,10.85
2022-11-30T22:42:59.231Z,10.85
2022-11-30T22:45:27.295Z,10.86
2022-11-30T22:47:54.121Z,10.88
2022-11-30T22:50:23.886Z,10.89
2022-11-30T22:53:03.035Z,10.89
2022-11-30T22:55:32.445Z,10.91
2022-11-30T22:57:59.636Z,10.93
2022-11-30T23:00:31.517Z,10.97
2022-11-30T23:02:58.366Z,10.93
2022-11-30T23:05:27.921Z,10.92
2022-11-30T23:07:55.095Z,10.87
2022-11-30T23:10:22.029Z,10.83
2022-11-30T23:12:59.433Z,10.83
2022-11-30T23:15:30.985Z,10.82
2022-11-30T23:18:31.239Z,10.80
2022-11-30T23:21:14.642Z,10.77
2022-11-30T23:23:43.697Z,10.72
2022-11-30T23:26:19.526Z,10.72
2022-11-30T23:28:47.846Z,10.72
2022-11-30T23:31:33.621Z,10.71
2022-11-30T23:34:08.612Z,10.75
2022-11-30T23:36:36.478Z,10.76
2022-11-30T23:39:10.512Z,10.77
2022-11-30T23:41:38.411Z,10.77
2022-11-30T23:44:06.412Z,10.80
2022-11-30T23:46:36.863Z,10.82
2022-11-30T23:49:04.171Z,10.84
2022-11-30T23:51:31.215Z,10.83
2022-11-30T23:54:02.883Z,10.84
2022-11-30T23:59:50.742Z,10.84
